sensor_id;sensor_type;location;lat;lon;timestamp;P1;durP1;ratioP1;P2;durP2;ratioP2
34711;SDS011;20941;42.408;25.634;2022-10-31T00:01:34;18.27;;;7.00;;
34711;SDS011;20941;42.408;25.634;2022-10-31T00:04:01;16.63;;;6.20;;
34711;SDS011;20941;42.408;25.634;2022-10-31T00:06:27;18.65;;;7.07;;
34711;SDS011;20941;42.408;25.634;2022-10-31T00:08:58;16.42;;;5.85;;
34711;SDS011;20941;42.408;25.634;2022-10-31T00:11:26;9.93;;;5.10;;
34711;SDS011;20941;42.408;25.634;2022-10-31T00:13:51;13.40;;;5.35;;
34711;SDS011;20941;42.408;25.634;2022-10-31T00:16:24;19.33;;;5.22;;
34711;SDS011;20941;42.408;25.634;2022-10-31T00:18:51;11.77;;;5.63;;
34711;SDS011;20941;42.408;25.634;2022-10-31T00:21:18;12.40;;;4.38;;
34711;SDS011;20941;42.408;25.634;2022-10-31T00:23:44;10.15;;;4.50;;
34711;SDS011;20941;42.408;25.634;2022-10-31T00:26:09;11.10;;;4.07;;
34711;SDS011;20941;42.408;25.634;2022-10-31T00:28:35;6.03;;;4.03;;
34711;SDS011;20941;42.408;25.634;2022-10-31T00:31:01;6.32;;;3.80;;
34711;SDS011;20941;42.408;25.634;2022-10-31T00:33:28;8.82;;;4.13;;
34711;SDS011;20941;42.408;25.634;2022-10-31T00:35:57;6.57;;;3.90;;
34711;SDS011;20941;42.408;25.634;2022-10-31T00:38:22;5.72;;;4.10;;
34711;SDS011;20941;42.408;25.634;2022-10-31T00:40:48;7.50;;;3.30;;
34711;SDS011;20941;42.408;25.634;2022-10-31T00:43:21;6.70;;;3.42;;
34711;SDS011;20941;42.408;25.634;2022-10-31T00:45:48;10.52;;;3.72;;
34711;SDS011;20941;42.408;25.634;2022-10-31T00:50:41;9.25;;;4.55;;
34711;SDS011;20941;42.408;25.634;2022-10-31T00:53:07;9.75;;;4.43;;
34711;SDS011;20941;42.408;25.634;2022-10-31T00:55:34;8.25;;;4.00;;
34711;SDS011;20941;42.408;25.634;2022-10-31T00:57:59;8.95;;;3.65;;
34711;SDS011;20941;42.408;25.634;2022-10-31T01:00:25;5.45;;;3.75;;
34711;SDS011;20941;42.408;25.634;2022-10-31T01:02:51;7.70;;;3.38;;
34711;SDS011;20941;42.408;25.634;2022-10-31T01:05:21;9.43;;;3.30;;
34711;SDS011;20941;42.408;25.634;2022-10-31T01:07:47;5.70;;;3.50;;
34711;SDS011;20941;42.408;25.634;2022-10-31T01:10:14;6.78;;;3.88;;
34711;SDS011;20941;42.408;25.634;2022-10-31T01:12:41;8.73;;;4.03;;
34711;SDS011;20941;42.408;25.634;2022-10-31T01:15:09;7.68;;;3.85;;
34711;SDS011;20941;42.408;25.634;2022-10-31T01:17:37;8.57;;;4.28;;
34711;SDS011;20941;42.408;25.634;2022-10-31T01:20:03;11.90;;;6.22;;
34711;SDS011;20941;42.408;25.634;2022-10-31T01:22:29;15.38;;;4.97;;
34711;SDS011;20941;42.408;25.634;2022-10-31T01:24:55;10.35;;;5.10;;
34711;SDS011;20941;42.408;25.634;2022-10-31T01:27:20;13.70;;;5.50;;
34711;SDS011;20941;42.408;25.634;2022-10-31T01:29:46;7.60;;;4.60;;
34711;SDS011;20941;42.408;25.634;2022-10-31T01:32:14;8.35;;;4.82;;
34711;SDS011;20941;42.408;25.634;2022-10-31T01:34:40;10.48;;;6.03;;
34711;SDS011;20941;42.408;25.634;2022-10-31T01:37:06;8.23;;;4.43;;
34711;SDS011;20941;42.408;25.634;2022-10-31T01:39:32;8.52;;;4.00;;
34711;SDS011;20941;42.408;25.634;2022-10-31T01:41:57;11.30;;;4.68;;
34711;SDS011;20941;42.408;25.634;2022-10-31T01:46:58;6.85;;;4.45;;
34711;SDS011;20941;42.408;25.634;2022-10-31T01:49:46;9.13;;;3.95;;
34711;SDS011;20941;42.408;25.634;2022-10-31T01:52:24;4.82;;;3.40;;
34711;SDS011;20941;42.408;25.634;2022-10-31T01:55:09;4.47;;;3.33;;
34711;SDS011;20941;42.408;25.634;2022-10-31T01:57:49;5.15;;;2.92;;
34711;SDS011;20941;42.408;25.634;2022-10-31T02:00:20;7.47;;;3.45;;
34711;SDS011;20941;42.408;25.634;2022-10-31T02:02:46;4.82;;;3.35;;
34711;SDS011;20941;42.408;25.634;2022-10-31T02:05:21;9.10;;;3.42;;
34711;SDS011;20941;42.408;25.634;2022-10-31T02:08:10;5.22;;;2.95;;
34711;SDS011;20941;42.408;25.634;2022-10-31T02:10:41;5.60;;;3.33;;
34711;SDS011;20941;42.408;25.634;2022-10-31T02:13:08;5.97;;;3.38;;
34711;SDS011;20941;42.408;25.634;2022-10-31T02:15:35;6.32;;;3.30;;
34711;SDS011;20941;42.408;25.634;2022-10-31T02:18:02;6.28;;;3.30;;
34711;SDS011;20941;42.408;25.634;2022-10-31T02:20:33;4.15;;;3.10;;
34711;SDS011;20941;42.408;25.634;2022-10-31T02:28:30;7.05;;;3.70;;
34711;SDS011;20941;42.408;25.634;2022-10-31T02:33:44;12.98;;;4.55;;
34711;SDS011;20941;42.408;25.634;2022-10-31T02:39:24;14.30;;;5.07;;
34711;SDS011;20941;42.408;25.634;2022-10-31T02:42:10;15.85;;;6.28;;
34711;SDS011;20941;42.408;25.634;2022-10-31T02:47:37;10.63;;;4.15;;
34711;SDS011;20941;42.408;25.634;2022-10-31T02:50:06;15.45;;;5.22;;
34711;SDS011;20941;42.408;25.634;2022-10-31T02:52:49;12.73;;;4.95;;
34711;SDS011;20941;42.408;25.634;2022-10-31T02:57:48;21.70;;;5.93;;
34711;SDS011;20941;42.408;25.634;2022-10-31T03:00:15;19.35;;;6.25;;
34711;SDS011;20941;42.408;25.634;2022-10-31T03:03:01;12.95;;;6.38;;
34711;SDS011;20941;42.408;25.634;2022-10-31T03:05:35;9.52;;;4.70;;
34711;SDS011;20941;42.408;25.634;2022-10-31T03:10:52;8.10;;;4.28;;
34711;SDS011;20941;42.408;25.634;2022-10-31T03:18:40;13.63;;;4.38;;
34711;SDS011;20941;42.408;25.634;2022-10-31T03:21:14;7.88;;;3.63;;
34711;SDS011;20941;42.408;25.634;2022-10-31T03:23:46;8.18;;;3.70;;
34711;SDS011;20941;42.408;25.634;2022-10-31T03:26:14;12.05;;;4.97;;
34711;SDS011;20941;42.408;25.634;2022-10-31T03:28:43;10.80;;;4.30;;
34711;SDS011;20941;42.408;25.634;2022-10-31T03:31:14;16.13;;;4.15;;
34711;SDS011;20941;42.408;25.634;2022-10-31T03:33:43;7.13;;;3.30;;
34711;SDS011;20941;42.408;25.634;2022-10-31T03:36:11;6.60;;;3.65;;
34711;SDS011;20941;42.408;25.634;2022-10-31T03:38:41;10.02;;;3.60;;
34711;SDS011;20941;42.408;25.634;2022-10-31T03:41:11;10.52;;;4.38;;
34711;SDS011;20941;42.408;25.634;2022-10-31T03:43:42;10.20;;;3.88;;
34711;SDS011;20941;42.408;25.634;2022-10-31T03:48:42;11.40;;;5.05;;
34711;SDS011;20941;42.408;25.634;2022-10-31T03:51:11;19.02;;;6.35;;
34711;SDS011;20941;42.408;25.634;2022-10-31T03:56:33;24.00;;;6.13;;
34711;SDS011;20941;42.408;25.634;2022-10-31T03:59:05;29.20;;;7.13;;
34711;SDS011;20941;42.408;25.634;2022-10-31T04:01:44;22.40;;;7.53;;
34711;SDS011;20941;42.408;25.634;2022-10-31T04:04:15;19.20;;;6.78;;
34711;SDS011;20941;42.408;25.634;2022-10-31T04:06:41;17.58;;;6.18;;
34711;SDS011;20941;42.408;25.634;2022-10-31T04:09:09;21.33;;;7.60;;
34711;SDS011;20941;42.408;25.634;2022-10-31T04:11:42;23.27;;;7.93;;
34711;SDS011;20941;42.408;25.634;2022-10-31T04:14:14;16.05;;;6.43;;
34711;SDS011;20941;42.408;25.634;2022-10-31T04:16:41;18.00;;;6.10;;
34711;SDS011;20941;42.408;25.634;2022-10-31T04:19:09;30.08;;;7.45;;
34711;SDS011;20941;42.408;25.634;2022-10-31T04:21:35;18.95;;;6.93;;
34711;SDS011;20941;42.408;25.634;2022-10-31T04:24:01;15.48;;;6.15;;
34711;SDS011;20941;42.408;25.634;2022-10-31T04:26:26;24.30;;;5.75;;
34711;SDS011;20941;42.408;25.634;2022-10-31T04:28:52;14.60;;;5.60;;
34711;SDS011;20941;42.408;25.634;2022-10-31T04:31:18;23.35;;;5.88;;
34711;SDS011;20941;42.408;25.634;2022-10-31T04:33:43;13.80;;;5.65;;
34711;SDS011;20941;42.408;25.634;2022-10-31T04:36:09;23.33;;;5.45;;
34711;SDS011;20941;42.408;25.634;2022-10-31T04:38:35;21.52;;;5.97;;
34711;SDS011;20941;42.408;25.634;2022-10-31T04:41:00;18.88;;;6.47;;
34711;SDS011;20941;42.408;25.634;2022-10-31T04:43:26;16.05;;;6.07;;
34711;SDS011;20941;42.408;25.634;2022-10-31T04:45:51;14.82;;;5.53;;
34711;SDS011;20941;42.408;25.634;2022-10-31T04:48:17;13.88;;;5.20;;
34711;SDS011;20941;42.408;25.634;2022-10-31T04:50:42;24.23;;;8.18;;
34711;SDS011;20941;42.408;25.634;2022-10-31T04:53:08;31.92;;;10.07;;
34711;SDS011;20941;42.408;25.634;2022-10-31T04:55:35;27.45;;;8.70;;
34711;SDS011;20941;42.408;25.634;2022-10-31T04:58:01;16.58;;;7.03;;
34711;SDS011;20941;42.408;25.634;2022-10-31T05:00:26;14.85;;;5.55;;
34711;SDS011;20941;42.408;25.634;2022-10-31T05:02:53;17.13;;;6.25;;
34711;SDS011;20941;42.408;25.634;2022-10-31T05:05:21;18.50;;;5.80;;
34711;SDS011;20941;42.408;25.634;2022-10-31T05:07:49;23.48;;;10.07;;
34711;SDS011;20941;42.408;25.634;2022-10-31T05:10:23;17.50;;;6.65;;
34711;SDS011;20941;42.408;25.634;2022-10-31T05:12:56;15.10;;;6.00;;
34711;SDS011;20941;42.408;25.634;2022-10-31T05:15:24;19.08;;;5.90;;
34711;SDS011;20941;42.408;25.634;2022-10-31T05:17:51;9.00;;;4.85;;
34711;SDS011;20941;42.408;25.634;2022-10-31T05:20:18;15.00;;;5.70;;
34711;SDS011;20941;42.408;25.634;2022-10-31T05:22:45;16.52;;;6.60;;
34711;SDS011;20941;42.408;25.634;2022-10-31T05:25:13;14.88;;;6.07;;
34711;SDS011;20941;42.408;25.634;2022-10-31T05:27:42;23.73;;;8.77;;
34711;SDS011;20941;42.408;25.634;2022-10-31T05:30:10;18.00;;;8.50;;
34711;SDS011;20941;42.408;25.634;2022-10-31T05:32:40;13.43;;;7.05;;
34711;SDS011;20941;42.408;25.634;2022-10-31T05:37:42;19.83;;;5.65;;
34711;SDS011;20941;42.408;25.634;2022-10-31T05:40:08;16.90;;;5.93;;
34711;SDS011;20941;42.408;25.634;2022-10-31T05:42:35;13.75;;;5.82;;
34711;SDS011;20941;42.408;25.634;2022-10-31T05:45:03;14.55;;;5.32;;
34711;SDS011;20941;42.408;25.634;2022-10-31T05:47:29;13.15;;;5.18;;
34711;SDS011;20941;42.408;25.634;2022-10-31T05:49:55;23.92;;;6.07;;
34711;SDS011;20941;42.408;25.634;2022-10-31T05:52:20;29.95;;;6.47;;
34711;SDS011;20941;42.408;25.634;2022-10-31T05:54:46;21.15;;;6.22;;
34711;SDS011;20941;42.408;25.634;2022-10-31T05:57:11;18.17;;;6.22;;
34711;SDS011;20941;42.408;25.634;2022-10-31T05:59:37;15.68;;;7.82;;
34711;SDS011;20941;42.408;25.634;2022-10-31T06:02:02;25.40;;;7.53;;
34711;SDS011;20941;42.408;25.634;2022-10-31T06:04:28;39.10;;;8.73;;
34711;SDS011;20941;42.408;25.634;2022-10-31T06:06:53;25.27;;;7.22;;
34711;SDS011;20941;42.408;25.634;2022-10-31T06:09:19;23.17;;;8.48;;
34711;SDS011;20941;42.408;25.634;2022-10-31T06:11:44;23.00;;;8.02;;
34711;SDS011;20941;42.408;25.634;2022-10-31T06:14:10;31.85;;;6.97;;
34711;SDS011;20941;42.408;25.634;2022-10-31T06:16:36;23.02;;;5.55;;
34711;SDS011;20941;42.408;25.634;2022-10-31T06:19:01;12.38;;;5.05;;
34711;SDS011;20941;42.408;25.634;2022-10-31T06:21:27;17.63;;;6.20;;
34711;SDS011;20941;42.408;25.634;2022-10-31T06:23:52;11.13;;;6.03;;
34711;SDS011;20941;42.408;25.634;2022-10-31T06:26:18;12.27;;;5.20;;
34711;SDS011;20941;42.408;25.634;2022-10-31T06:28:43;26.95;;;6.88;;
34711;SDS011;20941;42.408;25.634;2022-10-31T06:31:09;13.77;;;5.78;;
34711;SDS011;20941;42.408;25.634;2022-10-31T06:33:35;13.77;;;5.20;;
34711;SDS011;20941;42.408;25.634;2022-10-31T06:36:00;33.88;;;6.85;;
34711;SDS011;20941;42.408;25.634;2022-10-31T06:38:26;22.88;;;6.18;;
34711;SDS011;20941;42.408;25.634;2022-10-31T06:40:52;16.30;;;5.32;;
34711;SDS011;20941;42.408;25.634;2022-10-31T06:43:19;22.00;;;5.97;;
34711;SDS011;20941;42.408;25.634;2022-10-31T06:45:50;22.13;;;6.10;;
34711;SDS011;20941;42.408;25.634;2022-10-31T06:48:17;23.20;;;6.53;;
34711;SDS011;20941;42.408;25.634;2022-10-31T06:50:44;25.00;;;5.60;;
34711;SDS011;20941;42.408;25.634;2022-10-31T06:53:12;23.08;;;5.75;;
34711;SDS011;20941;42.408;25.634;2022-10-31T06:55:42;23.80;;;6.25;;
34711;SDS011;20941;42.408;25.634;2022-10-31T06:58:15;15.50;;;5.18;;
34711;SDS011;20941;42.408;25.634;2022-10-31T07:00:52;10.70;;;4.78;;
34711;SDS011;20941;42.408;25.634;2022-10-31T07:03:23;16.10;;;5.78;;
34711;SDS011;20941;42.408;25.634;2022-10-31T07:05:50;22.00;;;6.03;;
34711;SDS011;20941;42.408;25.634;2022-10-31T07:08:19;15.48;;;6.15;;
34711;SDS011;20941;42.408;25.634;2022-10-31T07:10:51;30.30;;;6.77;;
34711;SDS011;20941;42.408;25.634;2022-10-31T07:13:40;26.17;;;6.15;;
34711;SDS011;20941;42.408;25.634;2022-10-31T07:16:07;19.55;;;6.38;;
34711;SDS011;20941;42.408;25.634;2022-10-31T07:18:43;18.90;;;7.13;;
34711;SDS011;20941;42.408;25.634;2022-10-31T07:21:34;11.52;;;5.10;;
34711;SDS011;20941;42.408;25.634;2022-10-31T07:24:00;18.85;;;5.60;;
34711;SDS011;20941;42.408;25.634;2022-10-31T07:26:28;28.90;;;7.55;;
34711;SDS011;20941;42.408;25.634;2022-10-31T07:28:53;25.50;;;8.00;;
34711;SDS011;20941;42.408;25.634;2022-10-31T07:31:22;28.40;;;7.80;;
34711;SDS011;20941;42.408;25.634;2022-10-31T07:33:50;16.25;;;6.18;;
34711;SDS011;20941;42.408;25.634;2022-10-31T07:36:17;23.25;;;6.65;;
34711;SDS011;20941;42.408;25.634;2022-10-31T07:38:44;19.15;;;7.18;;
34711;SDS011;20941;42.408;25.634;2022-10-31T07:41:10;29.60;;;8.60;;
34711;SDS011;20941;42.408;25.634;2022-10-31T07:43:36;40.88;;;10.23;;
34711;SDS011;20941;42.408;25.634;2022-10-31T07:46:02;27.05;;;8.10;;
34711;SDS011;20941;42.408;25.634;2022-10-31T07:48:27;14.63;;;6.10;;
34711;SDS011;20941;42.408;25.634;2022-10-31T07:50:53;18.35;;;6.13;;
34711;SDS011;20941;42.408;25.634;2022-10-31T07:53:20;17.58;;;6.07;;
34711;SDS011;20941;42.408;25.634;2022-10-31T07:55:45;15.85;;;6.00;;
34711;SDS011;20941;42.408;25.634;2022-10-31T07:58:12;84.85;;;7.78;;
34711;SDS011;20941;42.408;25.634;2022-10-31T08:00:42;35.10;;;7.10;;
34711;SDS011;20941;42.408;25.634;2022-10-31T08:03:10;20.92;;;6.50;;
34711;SDS011;20941;42.408;25.634;2022-10-31T08:05:37;23.00;;;6.88;;
34711;SDS011;20941;42.408;25.634;2022-10-31T08:08:06;46.80;;;7.40;;
34711;SDS011;20941;42.408;25.634;2022-10-31T08:10:33;19.42;;;5.90;;
34711;SDS011;20941;42.408;25.634;2022-10-31T08:13:03;9.27;;;5.53;;
34711;SDS011;20941;42.408;25.634;2022-10-31T08:15:31;21.42;;;5.90;;
34711;SDS011;20941;42.408;25.634;2022-10-31T08:17:58;11.60;;;5.60;;
34711;SDS011;20941;42.408;25.634;2022-10-31T08:20:24;10.32;;;5.53;;
34711;SDS011;20941;42.408;25.634;2022-10-31T08:22:57;18.98;;;6.75;;
34711;SDS011;20941;42.408;25.634;2022-10-31T08:25:24;15.65;;;5.65;;
34711;SDS011;20941;42.408;25.634;2022-10-31T08:27:51;8.85;;;4.55;;
34711;SDS011;20941;42.408;25.634;2022-10-31T08:30:19;11.77;;;5.15;;
34711;SDS011;20941;42.408;25.634;2022-10-31T08:32:45;13.82;;;6.75;;
34711;SDS011;20941;42.408;25.634;2022-10-31T08:35:11;11.48;;;5.35;;
34711;SDS011;20941;42.408;25.634;2022-10-31T08:37:36;11.50;;;4.95;;
34711;SDS011;20941;42.408;25.634;2022-10-31T08:40:02;10.70;;;5.10;;
34711;SDS011;20941;42.408;25.634;2022-10-31T08:42:28;14.93;;;5.95;;
34711;SDS011;20941;42.408;25.634;2022-10-31T08:44:53;11.85;;;6.38;;
34711;SDS011;20941;42.408;25.634;2022-10-31T08:47:19;16.50;;;6.00;;
34711;SDS011;20941;42.408;25.634;2022-10-31T08:54:55;18.42;;;7.45;;
34711;SDS011;20941;42.408;25.634;2022-10-31T08:57:20;23.20;;;9.48;;
34711;SDS011;20941;42.408;25.634;2022-10-31T08:59:46;11.43;;;5.75;;
34711;SDS011;20941;42.408;25.634;2022-10-31T09:02:11;9.25;;;4.45;;
34711;SDS011;20941;42.408;25.634;2022-10-31T09:04:37;14.40;;;9.43;;
34711;SDS011;20941;42.408;25.634;2022-10-31T09:07:02;6.18;;;4.95;;
34711;SDS011;20941;42.408;25.634;2022-10-31T09:09:28;13.10;;;6.20;;
34711;SDS011;20941;42.408;25.634;2022-10-31T09:11:53;7.47;;;3.70;;
34711;SDS011;20941;42.408;25.634;2022-10-31T09:14:19;9.27;;;4.45;;
34711;SDS011;20941;42.408;25.634;2022-10-31T09:16:44;16.00;;;5.78;;
34711;SDS011;20941;42.408;25.634;2022-10-31T09:19:10;9.10;;;3.72;;
34711;SDS011;20941;42.408;25.634;2022-10-31T09:21:36;10.35;;;5.55;;
34711;SDS011;20941;42.408;25.634;2022-10-31T09:24:01;7.47;;;4.80;;
34711;SDS011;20941;42.408;25.634;2022-10-31T09:26:27;11.20;;;5.15;;
34711;SDS011;20941;42.408;25.634;2022-10-31T09:28:52;7.90;;;4.03;;
34711;SDS011;20941;42.408;25.634;2022-10-31T09:31:18;6.07;;;3.80;;
34711;SDS011;20941;42.408;25.634;2022-10-31T09:33:44;17.85;;;6.72;;
34711;SDS011;20941;42.408;25.634;2022-10-31T09:36:09;13.25;;;5.50;;
34711;SDS011;20941;42.408;25.634;2022-10-31T09:38:35;8.68;;;5.53;;
34711;SDS011;20941;42.408;25.634;2022-10-31T09:41:03;15.25;;;5.00;;
34711;SDS011;20941;42.408;25.634;2022-10-31T09:46:32;5.65;;;3.40;;
34711;SDS011;20941;42.408;25.634;2022-10-31T09:51:48;7.45;;;3.83;;
34711;SDS011;20941;42.408;25.634;2022-10-31T09:54:30;7.40;;;4.03;;
34711;SDS011;20941;42.408;25.634;2022-10-31T09:57:02;6.00;;;3.58;;
34711;SDS011;20941;42.408;25.634;2022-10-31T09:59:41;14.55;;;4.70;;
34711;SDS011;20941;42.408;25.634;2022-10-31T10:02:20;13.50;;;4.32;;
34711;SDS011;20941;42.408;25.634;2022-10-31T10:04:57;10.40;;;4.15;;
34711;SDS011;20941;42.408;25.634;2022-10-31T10:13:36;6.95;;;3.50;;
34711;SDS011;20941;42.408;25.634;2022-10-31T10:16:36;8.50;;;3.45;;
34711;SDS011;20941;42.408;25.634;2022-10-31T10:25:09;6.57;;;4.03;;
34711;SDS011;20941;42.408;25.634;2022-10-31T10:30:42;9.23;;;4.30;;
34711;SDS011;20941;42.408;25.634;2022-10-31T10:33:22;7.55;;;5.05;;
34711;SDS011;20941;42.408;25.634;2022-10-31T10:42:00;10.57;;;4.50;;
34711;SDS011;20941;42.408;25.634;2022-10-31T10:44:48;8.73;;;4.30;;
34711;SDS011;20941;42.408;25.634;2022-10-31T10:47:36;7.53;;;3.42;;
34711;SDS011;20941;42.408;25.634;2022-10-31T10:50:20;7.40;;;3.20;;
34711;SDS011;20941;42.408;25.634;2022-10-31T10:53:01;8.30;;;3.70;;
34711;SDS011;20941;42.408;25.634;2022-10-31T10:58:06;6.25;;;3.08;;
34711;SDS011;20941;42.408;25.634;2022-10-31T11:00:41;7.85;;;3.10;;
34711;SDS011;20941;42.408;25.634;2022-10-31T11:03:11;5.40;;;2.83;;
34711;SDS011;20941;42.408;25.634;2022-10-31T11:08:26;9.82;;;4.00;;
34711;SDS011;20941;42.408;25.634;2022-10-31T11:13:59;10.23;;;5.15;;
34711;SDS011;20941;42.408;25.634;2022-10-31T11:16:42;7.20;;;3.17;;
34711;SDS011;20941;42.408;25.634;2022-10-31T11:19:20;7.72;;;3.10;;
34711;SDS011;20941;42.408;25.634;2022-10-31T11:21:48;11.15;;;3.92;;
34711;SDS011;20941;42.408;25.634;2022-10-31T11:24:21;12.00;;;3.83;;
34711;SDS011;20941;42.408;25.634;2022-10-31T11:26:51;4.25;;;3.17;;
34711;SDS011;20941;42.408;25.634;2022-10-31T11:29:20;5.10;;;3.08;;
34711;SDS011;20941;42.408;25.634;2022-10-31T11:31:48;6.68;;;2.80;;
34711;SDS011;20941;42.408;25.634;2022-10-31T11:34:26;7.22;;;3.20;;
34711;SDS011;20941;42.408;25.634;2022-10-31T11:39:55;7.22;;;2.83;;
34711;SDS011;20941;42.408;25.634;2022-10-31T11:42:27;11.75;;;4.25;;
34711;SDS011;20941;42.408;25.634;2022-10-31T11:44:59;14.88;;;4.40;;
34711;SDS011;20941;42.408;25.634;2022-10-31T11:47:31;11.88;;;3.45;;
34711;SDS011;20941;42.408;25.634;2022-10-31T11:50:01;23.98;;;6.07;;
34711;SDS011;20941;42.408;25.634;2022-10-31T11:52:36;5.75;;;2.83;;
34711;SDS011;20941;42.408;25.634;2022-10-31T11:55:25;6.82;;;2.60;;
34711;SDS011;20941;42.408;25.634;2022-10-31T12:08:37;9.68;;;3.88;;
34711;SDS011;20941;42.408;25.634;2022-10-31T12:21:49;4.53;;;2.55;;
34711;SDS011;20941;42.408;25.634;2022-10-31T12:33:32;8.98;;;4.07;;
34711;SDS011;20941;42.408;25.634;2022-10-31T12:45:04;17.50;;;11.00;;
34711;SDS011;20941;42.408;25.634;2022-10-31T12:48:00;14.15;;;5.32;;
34711;SDS011;20941;42.408;25.634;2022-10-31T12:50:47;5.05;;;3.13;;
34711;SDS011;20941;42.408;25.634;2022-10-31T12:59:34;8.18;;;3.13;;
34711;SDS011;20941;42.408;25.634;2022-10-31T13:04:49;6.13;;;2.80;;
34711;SDS011;20941;42.408;25.634;2022-10-31T13:07:43;5.35;;;2.67;;
34711;SDS011;20941;42.408;25.634;2022-10-31T13:10:20;5.55;;;3.10;;
34711;SDS011;20941;42.408;25.634;2022-10-31T13:12:48;5.30;;;3.08;;
34711;SDS011;20941;42.408;25.634;2022-10-31T13:15:28;5.00;;;2.90;;
34711;SDS011;20941;42.408;25.634;2022-10-31T13:18:03;6.18;;;2.83;;
34711;SDS011;20941;42.408;25.634;2022-10-31T13:20:43;8.52;;;2.80;;
34711;SDS011;20941;42.408;25.634;2022-10-31T13:23:33;3.67;;;2.65;;
34711;SDS011;20941;42.408;25.634;2022-10-31T13:26:06;3.97;;;2.67;;
34711;SDS011;20941;42.408;25.634;2022-10-31T13:28:47;8.20;;;2.88;;
34711;SDS011;20941;42.408;25.634;2022-10-31T13:31:20;8.23;;;2.78;;
34711;SDS011;20941;42.408;25.634;2022-10-31T13:33:59;8.07;;;3.15;;
34711;SDS011;20941;42.408;25.634;2022-10-31T13:36:43;13.43;;;3.40;;
34711;SDS011;20941;42.408;25.634;2022-10-31T13:42:13;12.38;;;5.22;;
34711;SDS011;20941;42.408;25.634;2022-10-31T13:47:25;4.15;;;2.80;;
34711;SDS011;20941;42.408;25.634;2022-10-31T13:50:02;11.00;;;4.53;;
34711;SDS011;20941;42.408;25.634;2022-10-31T13:53:03;15.60;;;8.23;;
34711;SDS011;20941;42.408;25.634;2022-10-31T13:55:45;16.80;;;11.90;;
34711;SDS011;20941;42.408;25.634;2022-10-31T13:58:28;15.73;;;6.07;;
34711;SDS011;20941;42.408;25.634;2022-10-31T14:09:35;5.97;;;3.28;;
34711;SDS011;20941;42.408;25.634;2022-10-31T14:12:24;7.20;;;3.22;;
34711;SDS011;20941;42.408;25.634;2022-10-31T14:15:24;7.75;;;2.90;;
34711;SDS011;20941;42.408;25.634;2022-10-31T14:20:37;8.27;;;3.22;;
34711;SDS011;20941;42.408;25.634;2022-10-31T14:25:53;11.10;;;4.38;;
34711;SDS011;20941;42.408;25.634;2022-10-31T14:28:31;11.68;;;4.63;;
34711;SDS011;20941;42.408;25.634;2022-10-31T14:30:59;7.72;;;3.53;;
34711;SDS011;20941;42.408;25.634;2022-10-31T14:33:26;11.38;;;4.57;;
34711;SDS011;20941;42.408;25.634;2022-10-31T14:36:06;12.10;;;4.60;;
34711;SDS011;20941;42.408;25.634;2022-10-31T14:41:54;11.13;;;4.05;;
34711;SDS011;20941;42.408;25.634;2022-10-31T14:50:50;6.00;;;3.90;;
34711;SDS011;20941;42.408;25.634;2022-10-31T14:56:27;22.77;;;12.60;;
34711;SDS011;20941;42.408;25.634;2022-10-31T14:59:17;25.25;;;13.70;;
34711;SDS011;20941;42.408;25.634;2022-10-31T15:02:07;20.27;;;12.00;;
34711;SDS011;20941;42.408;25.634;2022-10-31T15:04:40;25.90;;;12.23;;
34711;SDS011;20941;42.408;25.634;2022-10-31T15:07:17;15.45;;;7.05;;
34711;SDS011;20941;42.408;25.634;2022-10-31T15:09:57;12.75;;;4.10;;
34711;SDS011;20941;42.408;25.634;2022-10-31T15:12:26;9.68;;;3.88;;
34711;SDS011;20941;42.408;25.634;2022-10-31T15:15:13;8.70;;;3.45;;
34711;SDS011;20941;42.408;25.634;2022-10-31T15:17:44;8.02;;;3.67;;
34711;SDS011;20941;42.408;25.634;2022-10-31T15:20:26;15.57;;;4.30;;
34711;SDS011;20941;42.408;25.634;2022-10-31T15:22:55;7.63;;;4.30;;
34711;SDS011;20941;42.408;25.634;2022-10-31T15:25:46;12.00;;;5.05;;
34711;SDS011;20941;42.408;25.634;2022-10-31T15:28:23;12.45;;;4.78;;
34711;SDS011;20941;42.408;25.634;2022-10-31T15:30:54;9.73;;;5.43;;
34711;SDS011;20941;42.408;25.634;2022-10-31T15:33:24;10.20;;;4.60;;
34711;SDS011;20941;42.408;25.634;2022-10-31T15:36:00;10.73;;;5.22;;
34711;SDS011;20941;42.408;25.634;2022-10-31T15:38:55;10.98;;;5.25;;
34711;SDS011;20941;42.408;25.634;2022-10-31T15:41:35;20.17;;;10.90;;
34711;SDS011;20941;42.408;25.634;2022-10-31T15:44:37;25.75;;;12.35;;
34711;SDS011;20941;42.408;25.634;2022-10-31T15:47:15;28.70;;;10.73;;
34711;SDS011;20941;42.408;25.634;2022-10-31T15:49:58;34.53;;;10.05;;
34711;SDS011;20941;42.408;25.634;2022-10-31T15:52:42;20.38;;;4.72;;
34711;SDS011;20941;42.408;25.634;2022-10-31T15:57:47;13.50;;;6.40;;
34711;SDS011;20941;42.408;25.634;2022-10-31T16:06:01;10.25;;;4.80;;
34711;SDS011;20941;42.408;25.634;2022-10-31T16:08:34;13.38;;;5.18;;
34711;SDS011;20941;42.408;25.634;2022-10-31T16:16:51;11.18;;;4.10;;
34711;SDS011;20941;42.408;25.634;2022-10-31T16:19:30;24.75;;;8.43;;
34711;SDS011;20941;42.408;25.634;2022-10-31T16:22:29;29.10;;;11.63;;
34711;SDS011;20941;42.408;25.634;2022-10-31T16:25:09;21.25;;;9.70;;
34711;SDS011;20941;42.408;25.634;2022-10-31T16:28:20;29.48;;;12.95;;
34711;SDS011;20941;42.408;25.634;2022-10-31T16:30:57;10.77;;;4.30;;
34711;SDS011;20941;42.408;25.634;2022-10-31T16:33:27;9.43;;;4.78;;
34711;SDS011;20941;42.408;25.634;2022-10-31T16:36:43;8.35;;;4.60;;
34711;SDS011;20941;42.408;25.634;2022-10-31T16:39:05;8.80;;;4.50;;
34711;SDS011;20941;42.408;25.634;2022-10-31T16:41:54;8.40;;;3.65;;
34711;SDS011;20941;42.408;25.634;2022-10-31T16:44:28;8.95;;;4.80;;
34711;SDS011;20941;42.408;25.634;2022-10-31T16:49:54;12.98;;;4.45;;
34711;SDS011;20941;42.408;25.634;2022-10-31T16:53:01;18.05;;;6.53;;
34711;SDS011;20941;42.408;25.634;2022-10-31T16:55:55;15.60;;;6.25;;
34711;SDS011;20941;42.408;25.634;2022-10-31T16:58:59;14.80;;;6.93;;
34711;SDS011;20941;42.408;25.634;2022-10-31T17:02:02;17.55;;;5.80;;
34711;SDS011;20941;42.408;25.634;2022-10-31T17:05:04;10.95;;;4.90;;
34711;SDS011;20941;42.408;25.634;2022-10-31T17:08:26;18.02;;;5.60;;
34711;SDS011;20941;42.408;25.634;2022-10-31T17:11:23;16.50;;;5.65;;
34711;SDS011;20941;42.408;25.634;2022-10-31T17:13:53;19.67;;;7.28;;
34711;SDS011;20941;42.408;25.634;2022-10-31T17:18:46;13.85;;;6.15;;
34711;SDS011;20941;42.408;25.634;2022-10-31T17:21:15;22.35;;;6.28;;
34711;SDS011;20941;42.408;25.634;2022-10-31T17:24:12;23.85;;;7.13;;
34711;SDS011;20941;42.408;25.634;2022-10-31T17:26:56;25.38;;;12.43;;
34711;SDS011;20941;42.408;25.634;2022-10-31T17:29:21;29.85;;;13.63;;
34711;SDS011;20941;42.408;25.634;2022-10-31T17:31:56;24.67;;;12.57;;
34711;SDS011;20941;42.408;25.634;2022-10-31T17:34:24;13.60;;;7.88;;
34711;SDS011;20941;42.408;25.634;2022-10-31T17:36:52;16.42;;;8.35;;
34711;SDS011;20941;42.408;25.634;2022-10-31T17:39:29;20.42;;;7.15;;
34711;SDS011;20941;42.408;25.634;2022-10-31T17:42:06;16.48;;;8.13;;
34711;SDS011;20941;42.408;25.634;2022-10-31T17:44:36;21.58;;;8.80;;
34711;SDS011;20941;42.408;25.634;2022-10-31T17:47:16;18.13;;;8.73;;
34711;SDS011;20941;42.408;25.634;2022-10-31T17:50:17;27.33;;;15.02;;
34711;SDS011;20941;42.408;25.634;2022-10-31T17:53:31;22.77;;;11.60;;
34711;SDS011;20941;42.408;25.634;2022-10-31T17:56:36;34.28;;;12.30;;
34711;SDS011;20941;42.408;25.634;2022-10-31T17:59:06;35.47;;;13.70;;